createdAt,value
2023-02-22T00:00:23.951Z,4.20
2023-02-22T00:05:31.716Z,4.10
2023-02-22T00:10:35.317Z,4.50
2023-02-22T00:15:43.139Z,3.30
2023-02-22T00:20:51.661Z,3.30
2023-02-22T00:25:55.686Z,3.40
2023-02-22T00:30:59.991Z,4.50
2023-02-22T00:36:07.997Z,3.30
2023-02-22T00:41:13.957Z,2.90
2023-02-22T00:46:21.402Z,3.00
2023-02-22T00:51:31.292Z,3.00
2023-02-22T00:56:36.105Z,3.30
2023-02-22T01:01:40.199Z,3.30
2023-02-22T01:06:48.381Z,3.40
2023-02-22T01:12:00.060Z,4.30
2023-02-22T01:17:05.409Z,3.10
2023-02-22T01:22:12.475Z,2.90
2023-02-22T01:27:17.025Z,3.70
2023-02-22T01:32:21.578Z,2.80
2023-02-22T01:37:32.601Z,3.90
2023-02-22T01:42:37.479Z,2.70
2023-02-22T01:47:44.113Z,3.10
2023-02-22T01:52:52.561Z,4.30
2023-02-22T01:57:56.520Z,3.20
2023-02-22T02:03:01.910Z,2.70
2023-02-22T02:08:18.415Z,2.20
2023-02-22T02:13:26.008Z,2.50
2023-02-22T02:18:30.940Z,1.70
2023-02-22T02:23:55.382Z,2.30
2023-02-22T02:29:31.806Z,1.80
2023-02-22T02:34:48.385Z,1.70
2023-02-22T02:39:58.592Z,1.90
2023-02-22T02:45:17.282Z,1.80
2023-02-22T02:50:27.358Z,1.70
2023-02-22T02:55:31.945Z,3.10
2023-02-22T03:00:43.637Z,2.40
2023-02-22T03:06:22.433Z,2.60
2023-02-22T03:11:28.938Z,2.50
2023-02-22T03:16:37.451Z,2.20
2023-02-22T03:21:47.182Z,2.40
2023-02-22T03:26:54.093Z,2.10
2023-02-22T03:32:01.780Z,2.30
2023-02-22T03:37:15.157Z,2.00
2023-02-22T03:42:24.505Z,2.00
2023-02-22T03:47:32.536Z,1.80
2023-02-22T03:52:42.017Z,1.70
2023-02-22T03:57:53.773Z,3.30
2023-02-22T04:03:01.562Z,2.30
2023-02-22T04:08:07.502Z,2.20
2023-02-22T04:13:13.339Z,1.90
2023-02-22T04:18:20.136Z,1.90
2023-02-22T04:23:27.080Z,3.20
2023-02-22T04:28:30.932Z,2.00
2023-02-22T04:33:48.033Z,2.00
2023-02-22T04:38:59.159Z,1.30
2023-02-22T04:44:07.272Z,1.70
2023-02-22T04:49:14.301Z,1.50
2023-02-22T04:54:31.744Z,1.70
2023-02-22T04:59:36.315Z,1.20
2023-02-22T05:04:41.181Z,1.60
2023-02-22T05:09:47.119Z,0.90
2023-02-22T05:14:53.745Z,1.50
2023-02-22T05:20:01.980Z,1.80
2023-02-22T05:25:13.626Z,0.00
2023-02-22T05:30:21.061Z,1.20
2023-02-22T05:35:26.161Z,1.80
2023-02-22T05:40:31.566Z,1.60
2023-02-22T05:45:36.625Z,1.50
2023-02-22T05:50:41.033Z,1.60
2023-02-22T05:55:50.591Z,1.70
2023-02-22T06:00:57.201Z,1.30
2023-02-22T06:06:03.999Z,1.20
2023-02-22T06:11:10.666Z,1.40
2023-02-22T06:16:20.517Z,1.60
2023-02-22T06:21:32.908Z,1.50
2023-02-22T06:26:49.489Z,1.50
2023-02-22T06:31:55.213Z,3.10
2023-02-22T06:37:21.378Z,0.30
2023-02-22T06:42:36.963Z,2.00
2023-02-22T06:47:42.421Z,1.70
2023-02-22T06:52:50.669Z,1.90
2023-02-22T06:58:10.972Z,2.00
2023-02-22T07:03:19.713Z,1.60
2023-02-22T07:08:39.669Z,1.50
2023-02-22T07:13:48.431Z,1.90
2023-02-22T07:19:02.275Z,2.90
2023-02-22T07:24:10.451Z,3.90
2023-02-22T07:29:18.930Z,1.40
2023-02-22T07:34:32.661Z,2.80
2023-02-22T07:39:44.878Z,2.60
2023-02-22T07:44:52.196Z,2.60
2023-02-22T07:49:56.918Z,2.90
2023-02-22T07:55:06.495Z,3.50
2023-02-22T08:00:24.709Z,2.80
2023-02-22T08:05:36.546Z,3.10
2023-02-22T08:10:43.565Z,3.70
2023-02-22T08:15:55.479Z,3.90
2023-02-22T08:21:09.125Z,5.00
2023-02-22T08:26:16.111Z,4.60
2023-02-22T08:31:27.022Z,4.80
2023-02-22T08:36:34.294Z,4.10
2023-02-22T08:41:38.142Z,4.30
2023-02-22T08:46:45.089Z,6.50
2023-02-22T08:51:58.906Z,5.60
2023-02-22T08:57:06.559Z,4.90
2023-02-22T09:02:18.700Z,5.70
2023-02-22T09:07:28.428Z,5.60
2023-02-22T09:12:50.877Z,6.30
2023-02-22T09:17:59.879Z,6.90
2023-02-22T09:23:14.971Z,7.50
2023-02-22T09:28:29.393Z,6.80
2023-02-22T09:33:37.682Z,8.00
2023-02-22T09:38:42.300Z,10.10
2023-02-22T09:43:55.095Z,9.90
2023-02-22T09:50:13.022Z,8.40
2023-02-22T09:55:39.961Z,7.50
2023-02-22T10:00:48.675Z,9.60
2023-02-22T10:05:59.807Z,7.70
2023-02-22T10:11:29.538Z,10.60
2023-02-22T10:16:47.535Z,8.70
2023-02-22T10:23:00.818Z,9.50
2023-02-22T10:28:39.463Z,10.00
2023-02-22T10:34:02.218Z,9.70
2023-02-22T10:45:13.941Z,10.10
2023-02-22T10:50:31.910Z,10.30
2023-02-22T10:56:27.006Z,10.40
2023-02-22T11:01:44.054Z,12.00
2023-02-22T11:07:43.891Z,11.90
2023-02-22T11:12:50.016Z,13.70
2023-02-22T11:18:08.596Z,11.40
2023-02-22T11:23:16.116Z,11.40
2023-02-22T11:28:32.537Z,12.10
2023-02-22T11:34:41.758Z,13.10
2023-02-22T11:39:51.660Z,13.80
2023-02-22T11:45:10.826Z,14.40
2023-02-22T11:50:20.305Z,14.50
2023-02-22T11:55:42.753Z,14.90
2023-02-22T12:01:02.094Z,14.70
2023-02-22T12:06:20.956Z,14.70
2023-02-22T12:11:34.640Z,14.20
2023-02-22T12:16:53.247Z,15.40
2023-02-22T12:22:33.654Z,15.60
2023-02-22T12:31:39.805Z,14.20
2023-02-22T12:36:53.184Z,14.00
2023-02-22T12:41:57.456Z,13.80
2023-02-22T12:47:23.612Z,13.90
2023-02-22T12:52:37.663Z,15.90
2023-02-22T12:57:46.058Z,13.80
2023-02-22T13:03:05.775Z,13.50
2023-02-22T13:08:32.132Z,13.70
2023-02-22T13:13:45.462Z,13.80
2023-02-22T13:19:00.527Z,13.50
2023-02-22T13:24:22.689Z,13.50
2023-02-22T13:29:45.515Z,13.90
2023-02-22T13:35:29.881Z,14.10
2023-02-22T13:40:58.159Z,14.00
2023-02-22T13:46:28.955Z,14.10
2023-02-22T13:52:08.848Z,13.90
2023-02-22T13:57:22.085Z,12.50
2023-02-22T14:02:55.423Z,14.30
2023-02-22T14:08:06.394Z,14.40
2023-02-22T14:13:23.889Z,12.40
2023-02-22T14:24:11.659Z,15.80
2023-02-22T14:29:18.523Z,13.50
2023-02-22T14:34:22.568Z,13.10
2023-02-22T14:39:34.760Z,13.00
2023-02-22T14:44:42.137Z,12.90
2023-02-22T14:49:46.778Z,12.80
2023-02-22T14:54:59.823Z,12.90
2023-02-22T15:00:20.251Z,12.90
2023-02-22T15:05:24.655Z,12.90
2023-02-22T15:10:31.491Z,12.70
2023-02-22T15:15:35.519Z,12.50
2023-02-22T15:20:40.243Z,12.50
2023-02-22T15:25:48.685Z,12.40
2023-02-22T15:30:52.092Z,12.40
2023-02-22T15:35:56.496Z,12.30
2023-02-22T15:41:05.696Z,12.20
2023-02-22T15:46:09.507Z,12.10
2023-02-22T15:51:14.340Z,12.20
2023-02-22T15:56:20.968Z,12.30
2023-02-22T16:01:26.465Z,12.20
2023-02-22T16:06:33.648Z,12.20
2023-02-22T16:11:43.274Z,12.10
2023-02-22T16:16:46.850Z,12.10
2023-02-22T16:21:54.817Z,12.50
2023-02-22T16:27:08.634Z,12.20
2023-02-22T16:32:11.996Z,12.10
2023-02-22T16:37:24.588Z,12.00
2023-02-22T16:42:31.850Z,11.90
2023-02-22T16:47:36.002Z,11.90
2023-02-22T16:52:42.646Z,11.80
2023-02-22T16:57:51.132Z,11.60
2023-02-22T17:02:54.511Z,11.60
2023-02-22T17:07:57.912Z,11.60
2023-02-22T17:13:16.405Z,11.60
2023-02-22T17:18:28.668Z,11.50
2023-02-22T17:23:32.295Z,11.60
2023-02-22T17:28:37.342Z,11.60
2023-02-22T17:33:41.027Z,11.50
2023-02-22T17:38:44.391Z,11.40
2023-02-22T17:54:47.620Z,11.30
2023-02-22T17:59:53.825Z,11.20
2023-02-22T18:05:00.986Z,11.20
2023-02-22T18:10:12.098Z,11.20
2023-02-22T18:15:17.664Z,11.20
2023-02-22T18:20:32.607Z,11.10
2023-02-22T18:25:42.881Z,11.10
2023-02-22T18:30:55.122Z,11.10
2023-02-22T18:35:59.980Z,11.00
2023-02-22T18:41:06.828Z,10.80
2023-02-22T18:46:13.032Z,10.80
2023-02-22T18:51:20.924Z,10.90
2023-02-22T18:56:29.867Z,11.00
2023-02-22T19:01:39.020Z,10.90
2023-02-22T19:06:43.294Z,11.00
2023-02-22T19:11:50.992Z,11.10
2023-02-22T19:16:57.615Z,11.10
2023-02-22T19:22:03.396Z,11.10
2023-02-22T19:27:08.416Z,11.20
2023-02-22T19:32:12.474Z,11.10
2023-02-22T19:37:22.159Z,11.10
2023-02-22T19:42:27.272Z,11.20
2023-02-22T19:47:31.076Z,10.60
2023-02-22T19:52:36.302Z,10.30
2023-02-22T19:57:43.523Z,10.30
2023-02-22T20:02:46.856Z,10.10
2023-02-22T20:07:50.715Z,9.90
2023-02-22T20:12:56.043Z,9.80
2023-02-22T20:18:05.200Z,9.70
2023-02-22T20:23:09.511Z,9.80
2023-02-22T20:28:14.150Z,9.80
2023-02-22T20:33:18.053Z,9.80
2023-02-22T20:38:21.759Z,9.70
2023-02-22T20:43:26.961Z,9.50
2023-02-22T20:48:33.375Z,9.50
2023-02-22T20:53:42.063Z,9.50
2023-02-22T20:58:52.352Z,9.60
2023-02-22T21:04:24.829Z,9.60
2023-02-22T21:09:28.564Z,9.60
2023-02-22T21:14:35.426Z,9.70
2023-02-22T21:19:39.530Z,9.70
2023-02-22T21:24:45.179Z,9.70
2023-02-22T21:29:50.456Z,9.90
2023-02-22T21:34:55.100Z,10.00
2023-02-22T21:39:59.227Z,10.20
2023-02-22T21:45:08.523Z,10.10
2023-02-22T21:50:14.103Z,10.10
2023-02-22T21:55:19.762Z,10.50
2023-02-22T22:00:30.262Z,10.30
2023-02-22T22:05:34.421Z,10.40
2023-02-22T22:10:39.286Z,10.60
2023-02-22T22:15:44.121Z,10.30
2023-02-22T22:26:11.598Z,10.70
2023-02-22T22:31:17.558Z,10.30
2023-02-22T22:36:21.599Z,10.20
2023-02-22T22:41:28.390Z,10.30
2023-02-22T22:46:33.647Z,10.40
2023-02-22T22:51:37.552Z,10.70
2023-02-22T22:56:42.088Z,10.20
2023-02-22T23:01:47.453Z,9.90
2023-02-22T23:06:51.655Z,9.90
2023-02-22T23:11:56.087Z,10.50
2023-02-22T23:17:03.672Z,10.20
2023-02-22T23:22:07.763Z,10.10
2023-02-22T23:27:12.271Z,10.40
2023-02-22T23:32:17.502Z,10.50
2023-02-22T23:37:21.605Z,10.30
2023-02-22T23:42:24.963Z,10.00
2023-02-22T23:47:31.879Z,9.80
2023-02-22T23:52:37.942Z,9.70
2023-02-22T23:57:43.517Z,9.80
